sensor_id;sensor_type;location;lat;lon;timestamp;P1;durP1;ratioP1;P2;durP2;ratioP2
75356;SDS011;63946;51.986;5.930;2024-03-25T00:00:56;10.52;;;2.30;;
75356;SDS011;63946;51.986;5.930;2024-03-25T00:03:22;8.18;;;2.55;;
75356;SDS011;63946;51.986;5.930;2024-03-25T00:05:51;9.88;;;2.75;;
75356;SDS011;63946;51.986;5.930;2024-03-25T00:08:17;10.32;;;2.30;;
75356;SDS011;63946;51.986;5.930;2024-03-25T00:10:43;11.70;;;2.03;;
75356;SDS011;63946;51.986;5.930;2024-03-25T00:13:09;11.13;;;2.50;;
75356;SDS011;63946;51.986;5.930;2024-03-25T00:15:36;9.45;;;2.10;;
75356;SDS011;63946;51.986;5.930;2024-03-25T00:18:03;12.35;;;2.00;;
75356;SDS011;63946;51.986;5.930;2024-03-25T00:20:30;10.43;;;2.10;;
75356;SDS011;63946;51.986;5.930;2024-03-25T00:22:56;10.45;;;2.58;;
75356;SDS011;63946;51.986;5.930;2024-03-25T00:25:22;12.38;;;2.35;;
75356;SDS011;63946;51.986;5.930;2024-03-25T00:27:50;16.00;;;2.00;;
75356;SDS011;63946;51.986;5.930;2024-03-25T00:30:17;9.40;;;1.92;;
75356;SDS011;63946;51.986;5.930;2024-03-25T00:32:43;9.18;;;3.03;;
75356;SDS011;63946;51.986;5.930;2024-03-25T00:35:09;9.40;;;2.30;;
75356;SDS011;63946;51.986;5.930;2024-03-25T00:37:35;10.15;;;1.88;;
75356;SDS011;63946;51.986;5.930;2024-03-25T00:40:01;9.60;;;2.15;;
75356;SDS011;63946;51.986;5.930;2024-03-25T00:42:29;17.23;;;2.53;;
75356;SDS011;63946;51.986;5.930;2024-03-25T00:44:55;11.98;;;2.78;;
75356;SDS011;63946;51.986;5.930;2024-03-25T00:47:22;6.43;;;1.60;;
75356;SDS011;63946;51.986;5.930;2024-03-25T00:49:48;10.20;;;2.13;;
75356;SDS011;63946;51.986;5.930;2024-03-25T00:52:14;9.55;;;2.05;;
75356;SDS011;63946;51.986;5.930;2024-03-25T00:54:40;8.18;;;2.13;;
75356;SDS011;63946;51.986;5.930;2024-03-25T00:57:06;18.95;;;2.80;;
75356;SDS011;63946;51.986;5.930;2024-03-25T00:59:33;11.20;;;2.20;;
75356;SDS011;63946;51.986;5.930;2024-03-25T01:01:59;11.05;;;2.63;;
75356;SDS011;63946;51.986;5.930;2024-03-25T01:04:25;13.50;;;2.15;;
75356;SDS011;63946;51.986;5.930;2024-03-25T01:06:51;8.30;;;2.13;;
75356;SDS011;63946;51.986;5.930;2024-03-25T01:09:17;8.60;;;2.30;;
75356;SDS011;63946;51.986;5.930;2024-03-25T01:11:43;11.55;;;2.25;;
75356;SDS011;63946;51.986;5.930;2024-03-25T01:14:10;12.30;;;2.20;;
75356;SDS011;63946;51.986;5.930;2024-03-25T01:16:36;10.68;;;1.80;;
75356;SDS011;63946;51.986;5.930;2024-03-25T01:19:02;17.02;;;3.30;;
75356;SDS011;63946;51.986;5.930;2024-03-25T01:21:28;16.98;;;3.33;;
75356;SDS011;63946;51.986;5.930;2024-03-25T01:23:54;8.75;;;2.08;;
75356;SDS011;63946;51.986;5.930;2024-03-25T01:26:20;12.38;;;2.15;;
75356;SDS011;63946;51.986;5.930;2024-03-25T01:28:47;9.52;;;2.00;;
75356;SDS011;63946;51.986;5.930;2024-03-25T01:31:13;11.75;;;3.13;;
75356;SDS011;63946;51.986;5.930;2024-03-25T01:33:39;10.60;;;2.08;;
75356;SDS011;63946;51.986;5.930;2024-03-25T01:36:05;7.80;;;2.80;;
75356;SDS011;63946;51.986;5.930;2024-03-25T01:38:32;9.13;;;2.42;;
75356;SDS011;63946;51.986;5.930;2024-03-25T01:41:08;11.32;;;2.30;;
75356;SDS011;63946;51.986;5.930;2024-03-25T01:43:35;9.48;;;2.33;;
75356;SDS011;63946;51.986;5.930;2024-03-25T01:46:01;9.77;;;2.60;;
75356;SDS011;63946;51.986;5.930;2024-03-25T01:48:27;13.93;;;2.78;;
75356;SDS011;63946;51.986;5.930;2024-03-25T01:50:54;8.65;;;2.55;;
75356;SDS011;63946;51.986;5.930;2024-03-25T01:53:22;13.10;;;4.13;;
75356;SDS011;63946;51.986;5.930;2024-03-25T01:55:49;8.43;;;2.45;;
75356;SDS011;63946;51.986;5.930;2024-03-25T01:58:16;11.85;;;2.60;;
75356;SDS011;63946;51.986;5.930;2024-03-25T02:00:45;12.00;;;2.25;;
75356;SDS011;63946;51.986;5.930;2024-03-25T02:03:12;15.00;;;3.53;;
75356;SDS011;63946;51.986;5.930;2024-03-25T02:05:38;15.35;;;2.55;;
75356;SDS011;63946;51.986;5.930;2024-03-25T02:08:05;8.85;;;2.28;;
75356;SDS011;63946;51.986;5.930;2024-03-25T02:10:32;13.90;;;2.95;;
75356;SDS011;63946;51.986;5.930;2024-03-25T02:12:58;9.52;;;2.65;;
75356;SDS011;63946;51.986;5.930;2024-03-25T02:15:25;13.10;;;2.55;;
75356;SDS011;63946;51.986;5.930;2024-03-25T02:17:52;11.00;;;2.45;;
75356;SDS011;63946;51.986;5.930;2024-03-25T02:20:18;11.35;;;3.10;;
75356;SDS011;63946;51.986;5.930;2024-03-25T02:22:44;15.32;;;2.95;;
75356;SDS011;63946;51.986;5.930;2024-03-25T02:25:14;14.70;;;3.25;;
75356;SDS011;63946;51.986;5.930;2024-03-25T02:27:42;14.95;;;3.08;;
75356;SDS011;63946;51.986;5.930;2024-03-25T02:30:09;12.90;;;3.38;;
75356;SDS011;63946;51.986;5.930;2024-03-25T02:32:36;17.42;;;3.42;;
75356;SDS011;63946;51.986;5.930;2024-03-25T02:35:06;10.55;;;3.08;;
75356;SDS011;63946;51.986;5.930;2024-03-25T02:37:36;18.13;;;3.10;;
75356;SDS011;63946;51.986;5.930;2024-03-25T02:40:07;14.60;;;2.65;;
75356;SDS011;63946;51.986;5.930;2024-03-25T02:42:35;14.98;;;2.50;;
75356;SDS011;63946;51.986;5.930;2024-03-25T02:45:02;10.27;;;2.60;;
75356;SDS011;63946;51.986;5.930;2024-03-25T02:47:29;8.05;;;2.63;;
75356;SDS011;63946;51.986;5.930;2024-03-25T02:49:57;9.63;;;2.60;;
75356;SDS011;63946;51.986;5.930;2024-03-25T02:52:26;12.40;;;3.13;;
75356;SDS011;63946;51.986;5.930;2024-03-25T02:54:53;13.23;;;3.00;;
75356;SDS011;63946;51.986;5.930;2024-03-25T02:57:20;10.52;;;2.92;;
75356;SDS011;63946;51.986;5.930;2024-03-25T02:59:46;13.02;;;3.35;;
75356;SDS011;63946;51.986;5.930;2024-03-25T03:02:13;10.02;;;2.78;;
75356;SDS011;63946;51.986;5.930;2024-03-25T03:04:39;10.13;;;2.60;;
75356;SDS011;63946;51.986;5.930;2024-03-25T03:07:05;12.93;;;2.97;;
75356;SDS011;63946;51.986;5.930;2024-03-25T03:09:34;13.50;;;2.88;;
75356;SDS011;63946;51.986;5.930;2024-03-25T03:12:01;13.18;;;2.72;;
75356;SDS011;63946;51.986;5.930;2024-03-25T03:14:27;12.25;;;3.10;;
75356;SDS011;63946;51.986;5.930;2024-03-25T03:16:53;9.52;;;2.63;;
75356;SDS011;63946;51.986;5.930;2024-03-25T03:19:20;11.82;;;2.50;;
75356;SDS011;63946;51.986;5.930;2024-03-25T03:21:47;10.02;;;2.35;;
75356;SDS011;63946;51.986;5.930;2024-03-25T03:24:16;18.98;;;3.17;;
75356;SDS011;63946;51.986;5.930;2024-03-25T03:26:42;13.55;;;2.78;;
75356;SDS011;63946;51.986;5.930;2024-03-25T03:29:11;15.60;;;3.50;;
75356;SDS011;63946;51.986;5.930;2024-03-25T03:31:37;13.35;;;3.45;;
75356;SDS011;63946;51.986;5.930;2024-03-25T03:34:03;15.43;;;2.90;;
75356;SDS011;63946;51.986;5.930;2024-03-25T03:36:29;14.82;;;3.72;;
75356;SDS011;63946;51.986;5.930;2024-03-25T03:38:56;11.48;;;3.00;;
75356;SDS011;63946;51.986;5.930;2024-03-25T03:41:22;14.85;;;2.88;;
75356;SDS011;63946;51.986;5.930;2024-03-25T03:43:48;11.70;;;2.40;;
75356;SDS011;63946;51.986;5.930;2024-03-25T03:46:14;9.73;;;2.28;;
75356;SDS011;63946;51.986;5.930;2024-03-25T03:48:40;13.80;;;2.92;;
75356;SDS011;63946;51.986;5.930;2024-03-25T03:51:07;12.40;;;2.90;;
75356;SDS011;63946;51.986;5.930;2024-03-25T03:53:34;5.95;;;2.17;;
75356;SDS011;63946;51.986;5.930;2024-03-25T03:56:01;10.77;;;2.80;;
75356;SDS011;63946;51.986;5.930;2024-03-25T05:39:23;10.70;;;3.30;;
75356;SDS011;63946;51.986;5.930;2024-03-25T05:44:25;8.98;;;3.40;;
75356;SDS011;63946;51.986;5.930;2024-03-25T05:46:51;11.32;;;3.90;;
75356;SDS011;63946;51.986;5.930;2024-03-25T05:49:17;12.52;;;3.92;;
75356;SDS011;63946;51.986;5.930;2024-03-25T05:51:43;15.30;;;3.63;;
75356;SDS011;63946;51.986;5.930;2024-03-25T05:54:09;13.15;;;3.42;;
75356;SDS011;63946;51.986;5.930;2024-03-25T05:56:35;13.98;;;3.90;;
75356;SDS011;63946;51.986;5.930;2024-03-25T05:59:02;8.98;;;3.47;;
75356;SDS011;63946;51.986;5.930;2024-03-25T06:01:33;12.38;;;3.88;;
75356;SDS011;63946;51.986;5.930;2024-03-25T06:03:59;14.10;;;4.30;;
75356;SDS011;63946;51.986;5.930;2024-03-25T06:06:25;13.07;;;4.28;;
75356;SDS011;63946;51.986;5.930;2024-03-25T06:08:52;10.48;;;3.50;;
75356;SDS011;63946;51.986;5.930;2024-03-25T06:11:18;18.02;;;3.92;;
75356;SDS011;63946;51.986;5.930;2024-03-25T06:13:47;16.63;;;3.95;;
75356;SDS011;63946;51.986;5.930;2024-03-25T06:16:13;10.68;;;4.03;;
75356;SDS011;63946;51.986;5.930;2024-03-25T06:18:42;12.05;;;3.53;;
75356;SDS011;63946;51.986;5.930;2024-03-25T06:21:11;11.80;;;3.20;;
75356;SDS011;63946;51.986;5.930;2024-03-25T06:23:37;10.20;;;3.80;;
75356;SDS011;63946;51.986;5.930;2024-03-25T06:26:04;10.20;;;2.88;;
75356;SDS011;63946;51.986;5.930;2024-03-25T06:28:32;8.98;;;3.47;;
75356;SDS011;63946;51.986;5.930;2024-03-25T06:30:59;11.38;;;2.80;;
75356;SDS011;63946;51.986;5.930;2024-03-25T06:33:40;15.18;;;4.18;;
75356;SDS011;63946;51.986;5.930;2024-03-25T06:38:53;8.10;;;3.75;;
75356;SDS011;63946;51.986;5.930;2024-03-25T06:41:25;9.27;;;2.70;;
75356;SDS011;63946;51.986;5.930;2024-03-25T06:43:52;15.38;;;4.65;;
75356;SDS011;63946;51.986;5.930;2024-03-25T06:46:18;10.60;;;3.40;;
75356;SDS011;63946;51.986;5.930;2024-03-25T06:48:47;13.65;;;3.65;;
75356;SDS011;63946;51.986;5.930;2024-03-25T06:51:17;13.48;;;4.35;;
75356;SDS011;63946;51.986;5.930;2024-03-25T06:53:43;13.85;;;4.10;;
75356;SDS011;63946;51.986;5.930;2024-03-25T06:56:11;12.18;;;2.83;;
75356;SDS011;63946;51.986;5.930;2024-03-25T06:58:38;18.52;;;3.47;;
75356;SDS011;63946;51.986;5.930;2024-03-25T07:01:08;9.63;;;3.38;;
75356;SDS011;63946;51.986;5.930;2024-03-25T07:03:40;16.88;;;3.63;;
75356;SDS011;63946;51.986;5.930;2024-03-25T07:06:08;13.45;;;3.25;;
75356;SDS011;63946;51.986;5.930;2024-03-25T07:08:37;14.52;;;3.28;;
75356;SDS011;63946;51.986;5.930;2024-03-25T07:11:03;13.88;;;3.65;;
75356;SDS011;63946;51.986;5.930;2024-03-25T07:13:35;16.58;;;3.53;;
75356;SDS011;63946;51.986;5.930;2024-03-25T07:16:07;10.43;;;3.40;;
75356;SDS011;63946;51.986;5.930;2024-03-25T07:18:37;12.18;;;3.25;;
75356;SDS011;63946;51.986;5.930;2024-03-25T07:21:06;10.32;;;3.53;;
75356;SDS011;63946;51.986;5.930;2024-03-25T07:23:36;15.48;;;4.30;;
75356;SDS011;63946;51.986;5.930;2024-03-25T07:26:03;14.93;;;3.88;;
75356;SDS011;63946;51.986;5.930;2024-03-25T07:28:32;10.10;;;3.78;;
75356;SDS011;63946;51.986;5.930;2024-03-25T07:30:59;8.27;;;3.15;;
75356;SDS011;63946;51.986;5.930;2024-03-25T07:33:28;9.80;;;3.10;;
75356;SDS011;63946;51.986;5.930;2024-03-25T07:35:57;13.15;;;3.53;;
75356;SDS011;63946;51.986;5.930;2024-03-25T07:38:24;16.65;;;3.30;;
75356;SDS011;63946;51.986;5.930;2024-03-25T07:40:52;11.88;;;4.72;;
75356;SDS011;63946;51.986;5.930;2024-03-25T07:43:22;14.95;;;3.90;;
75356;SDS011;63946;51.986;5.930;2024-03-25T07:45:52;13.20;;;4.15;;
75356;SDS011;63946;51.986;5.930;2024-03-25T07:48:22;14.43;;;3.65;;
75356;SDS011;63946;51.986;5.930;2024-03-25T07:50:56;15.10;;;3.30;;
75356;SDS011;63946;51.986;5.930;2024-03-25T07:53:35;12.60;;;3.50;;
75356;SDS011;63946;51.986;5.930;2024-03-25T07:56:02;14.73;;;2.95;;
75356;SDS011;63946;51.986;5.930;2024-03-25T07:58:30;14.93;;;3.92;;
75356;SDS011;63946;51.986;5.930;2024-03-25T08:01:01;17.15;;;3.85;;
75356;SDS011;63946;51.986;5.930;2024-03-25T08:03:31;14.25;;;3.33;;
75356;SDS011;63946;51.986;5.930;2024-03-25T08:06:22;13.15;;;3.90;;
75356;SDS011;63946;51.986;5.930;2024-03-25T08:08:56;11.13;;;3.20;;
75356;SDS011;63946;51.986;5.930;2024-03-25T08:11:25;12.88;;;3.30;;
75356;SDS011;63946;51.986;5.930;2024-03-25T08:13:53;14.82;;;3.97;;
75356;SDS011;63946;51.986;5.930;2024-03-25T08:16:22;13.25;;;3.33;;
75356;SDS011;63946;51.986;5.930;2024-03-25T08:18:49;11.80;;;3.30;;
75356;SDS011;63946;51.986;5.930;2024-03-25T08:21:18;12.02;;;3.05;;
75356;SDS011;63946;51.986;5.930;2024-03-25T08:23:44;17.60;;;3.17;;
75356;SDS011;63946;51.986;5.930;2024-03-25T08:26:11;14.55;;;3.90;;
75356;SDS011;63946;51.986;5.930;2024-03-25T08:28:37;14.05;;;3.30;;
75356;SDS011;63946;51.986;5.930;2024-03-25T08:31:05;12.90;;;3.20;;
75356;SDS011;63946;51.986;5.930;2024-03-25T08:33:31;14.70;;;3.55;;
75356;SDS011;63946;51.986;5.930;2024-03-25T08:35:57;11.80;;;3.13;;
75356;SDS011;63946;51.986;5.930;2024-03-25T08:38:23;10.23;;;3.13;;
75356;SDS011;63946;51.986;5.930;2024-03-25T08:40:52;13.20;;;3.47;;
75356;SDS011;63946;51.986;5.930;2024-03-25T08:43:18;14.38;;;3.28;;
75356;SDS011;63946;51.986;5.930;2024-03-25T08:45:44;13.45;;;3.47;;
75356;SDS011;63946;51.986;5.930;2024-03-25T08:48:10;12.07;;;3.33;;
75356;SDS011;63946;51.986;5.930;2024-03-25T08:50:37;11.63;;;2.58;;
75356;SDS011;63946;51.986;5.930;2024-03-25T08:53:03;17.55;;;3.47;;
75356;SDS011;63946;51.986;5.930;2024-03-25T08:55:30;13.18;;;2.90;;
75356;SDS011;63946;51.986;5.930;2024-03-25T08:57:59;8.07;;;2.58;;
75356;SDS011;63946;51.986;5.930;2024-03-25T09:00:26;12.65;;;2.30;;
75356;SDS011;63946;51.986;5.930;2024-03-25T09:02:53;8.77;;;2.60;;
75356;SDS011;63946;51.986;5.930;2024-03-25T09:05:20;7.50;;;1.95;;
75356;SDS011;63946;51.986;5.930;2024-03-25T09:07:50;9.40;;;2.15;;
75356;SDS011;63946;51.986;5.930;2024-03-25T09:10:16;12.55;;;2.85;;
75356;SDS011;63946;51.986;5.930;2024-03-25T09:12:58;9.15;;;2.55;;
75356;SDS011;63946;51.986;5.930;2024-03-25T09:15:24;12.32;;;2.95;;
75356;SDS011;63946;51.986;5.930;2024-03-25T09:17:50;9.63;;;2.25;;
75356;SDS011;63946;51.986;5.930;2024-03-25T09:20:16;7.15;;;2.22;;
75356;SDS011;63946;51.986;5.930;2024-03-25T09:22:43;10.55;;;3.10;;
75356;SDS011;63946;51.986;5.930;2024-03-25T09:25:09;6.82;;;2.85;;
75356;SDS011;63946;51.986;5.930;2024-03-25T09:27:36;15.45;;;2.67;;
75356;SDS011;63946;51.986;5.930;2024-03-25T09:30:02;12.95;;;2.45;;
75356;SDS011;63946;51.986;5.930;2024-03-25T09:32:29;9.52;;;2.30;;
75356;SDS011;63946;51.986;5.930;2024-03-25T09:34:56;9.63;;;2.20;;
75356;SDS011;63946;51.986;5.930;2024-03-25T09:37:23;9.13;;;2.00;;
75356;SDS011;63946;51.986;5.930;2024-03-25T09:39:56;6.45;;;2.20;;
75356;SDS011;63946;51.986;5.930;2024-03-25T09:42:26;10.35;;;1.92;;
75356;SDS011;63946;51.986;5.930;2024-03-25T09:44:55;7.57;;;1.63;;
75356;SDS011;63946;51.986;5.930;2024-03-25T09:47:21;11.43;;;2.10;;
75356;SDS011;63946;51.986;5.930;2024-03-25T09:49:49;8.88;;;2.17;;
75356;SDS011;63946;51.986;5.930;2024-03-25T09:52:18;6.70;;;2.50;;
75356;SDS011;63946;51.986;5.930;2024-03-25T09:54:45;7.68;;;2.22;;
75356;SDS011;63946;51.986;5.930;2024-03-25T09:57:11;7.97;;;2.53;;
75356;SDS011;63946;51.986;5.930;2024-03-25T09:59:39;11.95;;;2.80;;
75356;SDS011;63946;51.986;5.930;2024-03-25T10:02:05;10.05;;;2.50;;
75356;SDS011;63946;51.986;5.930;2024-03-25T10:04:37;7.63;;;2.10;;
75356;SDS011;63946;51.986;5.930;2024-03-25T10:07:10;10.00;;;2.92;;
75356;SDS011;63946;51.986;5.930;2024-03-25T10:09:36;8.30;;;2.55;;
75356;SDS011;63946;51.986;5.930;2024-03-25T10:12:02;8.25;;;2.45;;
75356;SDS011;63946;51.986;5.930;2024-03-25T10:14:28;5.10;;;1.77;;
75356;SDS011;63946;51.986;5.930;2024-03-25T10:16:54;11.93;;;2.60;;
75356;SDS011;63946;51.986;5.930;2024-03-25T10:19:20;18.38;;;3.10;;
75356;SDS011;63946;51.986;5.930;2024-03-25T10:21:46;12.35;;;3.30;;
75356;SDS011;63946;51.986;5.930;2024-03-25T10:24:12;8.57;;;2.55;;
75356;SDS011;63946;51.986;5.930;2024-03-25T10:26:42;7.72;;;2.17;;
75356;SDS011;63946;51.986;5.930;2024-03-25T10:29:08;8.50;;;2.33;;
75356;SDS011;63946;51.986;5.930;2024-03-25T10:31:37;7.35;;;2.17;;
75356;SDS011;63946;51.986;5.930;2024-03-25T10:34:03;11.05;;;2.15;;
75356;SDS011;63946;51.986;5.930;2024-03-25T10:36:30;9.32;;;2.10;;
75356;SDS011;63946;51.986;5.930;2024-03-25T10:38:57;6.13;;;2.20;;
75356;SDS011;63946;51.986;5.930;2024-03-25T10:41:27;9.45;;;1.95;;
75356;SDS011;63946;51.986;5.930;2024-03-25T10:43:55;12.52;;;2.25;;
75356;SDS011;63946;51.986;5.930;2024-03-25T10:46:28;7.28;;;1.90;;
75356;SDS011;63946;51.986;5.930;2024-03-25T10:49:01;5.03;;;1.98;;
75356;SDS011;63946;51.986;5.930;2024-03-25T10:51:33;8.60;;;2.22;;
75356;SDS011;63946;51.986;5.930;2024-03-25T10:54:01;7.53;;;1.90;;
75356;SDS011;63946;51.986;5.930;2024-03-25T10:56:29;6.78;;;2.03;;
75356;SDS011;63946;51.986;5.930;2024-03-25T10:58:55;8.18;;;1.95;;
75356;SDS011;63946;51.986;5.930;2024-03-25T11:01:22;8.30;;;2.22;;
75356;SDS011;63946;51.986;5.930;2024-03-25T11:03:50;8.57;;;2.20;;
75356;SDS011;63946;51.986;5.930;2024-03-25T11:06:16;9.55;;;2.47;;
75356;SDS011;63946;51.986;5.930;2024-03-25T11:08:42;9.13;;;2.58;;
75356;SDS011;63946;51.986;5.930;2024-03-25T11:11:09;5.63;;;2.13;;
75356;SDS011;63946;51.986;5.930;2024-03-25T11:13:36;7.40;;;2.30;;
75356;SDS011;63946;51.986;5.930;2024-03-25T11:16:03;8.65;;;2.42;;
75356;SDS011;63946;51.986;5.930;2024-03-25T11:18:29;8.68;;;2.15;;
75356;SDS011;63946;51.986;5.930;2024-03-25T11:20:59;7.85;;;2.30;;
75356;SDS011;63946;51.986;5.930;2024-03-25T11:23:42;10.35;;;3.28;;
75356;SDS011;63946;51.986;5.930;2024-03-25T11:26:21;6.75;;;2.03;;
75356;SDS011;63946;51.986;5.930;2024-03-25T11:28:50;7.55;;;2.10;;
75356;SDS011;63946;51.986;5.930;2024-03-25T11:31:17;10.20;;;2.38;;
75356;SDS011;63946;51.986;5.930;2024-03-25T11:33:47;6.00;;;2.15;;
75356;SDS011;63946;51.986;5.930;2024-03-25T11:36:13;7.68;;;2.10;;
75356;SDS011;63946;51.986;5.930;2024-03-25T11:38:43;7.72;;;2.20;;
75356;SDS011;63946;51.986;5.930;2024-03-25T11:41:09;7.00;;;2.08;;
75356;SDS011;63946;51.986;5.930;2024-03-25T11:43:36;7.57;;;2.53;;
75356;SDS011;63946;51.986;5.930;2024-03-25T11:46:03;8.45;;;2.53;;
75356;SDS011;63946;51.986;5.930;2024-03-25T11:48:29;4.75;;;1.67;;
75356;SDS011;63946;51.986;5.930;2024-03-25T11:50:55;9.05;;;2.15;;
75356;SDS011;63946;51.986;5.930;2024-03-25T11:53:22;7.00;;;2.00;;
75356;SDS011;63946;51.986;5.930;2024-03-25T11:55:48;6.93;;;2.35;;
75356;SDS011;63946;51.986;5.930;2024-03-25T11:58:15;6.90;;;2.13;;
75356;SDS011;63946;51.986;5.930;2024-03-25T12:00:44;6.97;;;2.75;;
75356;SDS011;63946;51.986;5.930;2024-03-25T12:03:15;6.30;;;2.30;;
75356;SDS011;63946;51.986;5.930;2024-03-25T12:05:42;7.75;;;2.42;;
75356;SDS011;63946;51.986;5.930;2024-03-25T12:08:08;9.43;;;2.15;;
75356;SDS011;63946;51.986;5.930;2024-03-25T12:10:36;7.82;;;2.70;;
75356;SDS011;63946;51.986;5.930;2024-03-25T12:13:18;8.38;;;2.78;;
75356;SDS011;63946;51.986;5.930;2024-03-25T12:15:45;7.30;;;2.67;;
75356;SDS011;63946;51.986;5.930;2024-03-25T12:18:11;7.05;;;2.63;;
75356;SDS011;63946;51.986;5.930;2024-03-25T12:20:39;10.85;;;3.08;;
75356;SDS011;63946;51.986;5.930;2024-03-25T12:23:05;7.43;;;2.97;;
75356;SDS011;63946;51.986;5.930;2024-03-25T12:25:33;8.63;;;3.45;;
75356;SDS011;63946;51.986;5.930;2024-03-25T12:27:59;7.25;;;2.92;;
75356;SDS011;63946;51.986;5.930;2024-03-25T12:30:25;6.90;;;2.90;;
75356;SDS011;63946;51.986;5.930;2024-03-25T12:32:51;7.07;;;2.75;;
75356;SDS011;63946;51.986;5.930;2024-03-25T12:35:18;6.72;;;2.40;;
75356;SDS011;63946;51.986;5.930;2024-03-25T12:37:47;7.68;;;2.63;;
75356;SDS011;63946;51.986;5.930;2024-03-25T12:40:24;6.63;;;3.13;;
75356;SDS011;63946;51.986;5.930;2024-03-25T12:42:52;9.00;;;2.67;;
75356;SDS011;63946;51.986;5.930;2024-03-25T12:45:22;7.63;;;2.50;;
75356;SDS011;63946;51.986;5.930;2024-03-25T12:47:49;8.93;;;2.95;;
75356;SDS011;63946;51.986;5.930;2024-03-25T12:50:20;5.93;;;3.35;;
75356;SDS011;63946;51.986;5.930;2024-03-25T12:52:49;9.88;;;2.92;;
75356;SDS011;63946;51.986;5.930;2024-03-25T12:55:15;4.88;;;2.75;;
75356;SDS011;63946;51.986;5.930;2024-03-25T12:57:41;6.63;;;3.00;;
75356;SDS011;63946;51.986;5.930;2024-03-25T13:00:07;6.20;;;2.78;;
75356;SDS011;63946;51.986;5.930;2024-03-25T13:02:34;5.22;;;2.60;;
75356;SDS011;63946;51.986;5.930;2024-03-25T13:05:00;6.85;;;2.80;;
75356;SDS011;63946;51.986;5.930;2024-03-25T13:07:26;5.70;;;3.00;;
75356;SDS011;63946;51.986;5.930;2024-03-25T13:09:53;5.43;;;2.95;;
75356;SDS011;63946;51.986;5.930;2024-03-25T13:12:19;5.22;;;2.65;;
75356;SDS011;63946;51.986;5.930;2024-03-25T13:14:45;6.15;;;3.15;;
75356;SDS011;63946;51.986;5.930;2024-03-25T13:17:11;9.27;;;3.22;;
75356;SDS011;63946;51.986;5.930;2024-03-25T13:19:37;5.82;;;2.88;;
75356;SDS011;63946;51.986;5.930;2024-03-25T13:22:03;5.55;;;2.90;;
75356;SDS011;63946;51.986;5.930;2024-03-25T13:24:30;6.40;;;2.70;;
75356;SDS011;63946;51.986;5.930;2024-03-25T13:26:56;6.95;;;3.10;;
75356;SDS011;63946;51.986;5.930;2024-03-25T13:29:22;6.82;;;2.97;;
75356;SDS011;63946;51.986;5.930;2024-03-25T13:31:48;8.13;;;3.63;;
75356;SDS011;63946;51.986;5.930;2024-03-25T13:34:14;6.40;;;3.15;;
75356;SDS011;63946;51.986;5.930;2024-03-25T13:36:40;5.53;;;3.00;;
75356;SDS011;63946;51.986;5.930;2024-03-25T13:39:06;6.55;;;2.90;;
75356;SDS011;63946;51.986;5.930;2024-03-25T13:41:32;5.18;;;3.00;;
75356;SDS011;63946;51.986;5.930;2024-03-25T13:43:58;4.68;;;2.80;;
75356;SDS011;63946;51.986;5.930;2024-03-25T13:46:25;3.53;;;2.60;;
75356;SDS011;63946;51.986;5.930;2024-03-25T13:48:51;6.75;;;2.67;;
75356;SDS011;63946;51.986;5.930;2024-03-25T13:51:17;5.57;;;2.60;;
75356;SDS011;63946;51.986;5.930;2024-03-25T13:53:43;4.32;;;2.70;;
75356;SDS011;63946;51.986;5.930;2024-03-25T13:56:09;7.80;;;2.50;;
75356;SDS011;63946;51.986;5.930;2024-03-25T13:58:35;3.58;;;2.10;;
75356;SDS011;63946;51.986;5.930;2024-03-25T14:01:04;5.50;;;2.40;;
75356;SDS011;63946;51.986;5.930;2024-03-25T14:03:30;3.17;;;2.25;;
75356;SDS011;63946;51.986;5.930;2024-03-25T14:05:56;6.15;;;2.40;;
75356;SDS011;63946;51.986;5.930;2024-03-25T14:08:22;5.68;;;2.88;;
75356;SDS011;63946;51.986;5.930;2024-03-25T14:11:07;4.03;;;2.45;;
75356;SDS011;63946;51.986;5.930;2024-03-25T14:13:36;4.95;;;2.42;;
75356;SDS011;63946;51.986;5.930;2024-03-25T14:16:02;4.40;;;2.33;;
75356;SDS011;63946;51.986;5.930;2024-03-25T14:18:28;6.80;;;2.40;;
75356;SDS011;63946;51.986;5.930;2024-03-25T14:20:54;7.38;;;2.33;;
75356;SDS011;63946;51.986;5.930;2024-03-25T14:23:20;5.55;;;2.50;;
75356;SDS011;63946;51.986;5.930;2024-03-25T14:25:47;4.22;;;2.25;;
75356;SDS011;63946;51.986;5.930;2024-03-25T14:28:13;6.18;;;2.47;;
75356;SDS011;63946;51.986;5.930;2024-03-25T14:30:39;4.20;;;2.13;;
75356;SDS011;63946;51.986;5.930;2024-03-25T14:33:05;6.07;;;2.42;;
75356;SDS011;63946;51.986;5.930;2024-03-25T14:35:31;3.25;;;1.88;;
75356;SDS011;63946;51.986;5.930;2024-03-25T14:37:57;7.00;;;2.58;;
75356;SDS011;63946;51.986;5.930;2024-03-25T14:40:23;4.78;;;2.70;;
75356;SDS011;63946;51.986;5.930;2024-03-25T14:42:52;5.38;;;2.30;;
75356;SDS011;63946;51.986;5.930;2024-03-25T14:45:18;5.13;;;2.63;;
75356;SDS011;63946;51.986;5.930;2024-03-25T14:47:45;4.68;;;2.55;;
75356;SDS011;63946;51.986;5.930;2024-03-25T14:50:11;5.07;;;2.10;;
75356;SDS011;63946;51.986;5.930;2024-03-25T14:52:40;5.63;;;2.88;;
75356;SDS011;63946;51.986;5.930;2024-03-25T14:55:06;4.43;;;2.33;;
75356;SDS011;63946;51.986;5.930;2024-03-25T14:57:33;5.53;;;2.42;;
75356;SDS011;63946;51.986;5.930;2024-03-25T14:59:59;6.20;;;2.58;;
75356;SDS011;63946;51.986;5.930;2024-03-25T15:02:25;5.00;;;2.53;;
75356;SDS011;63946;51.986;5.930;2024-03-25T15:04:51;5.28;;;2.60;;
75356;SDS011;63946;51.986;5.930;2024-03-25T15:07:17;3.78;;;2.03;;
75356;SDS011;63946;51.986;5.930;2024-03-25T15:09:43;7.43;;;2.70;;
75356;SDS011;63946;51.986;5.930;2024-03-25T15:12:09;6.00;;;2.60;;
75356;SDS011;63946;51.986;5.930;2024-03-25T15:14:35;6.68;;;2.67;;
75356;SDS011;63946;51.986;5.930;2024-03-25T15:17:02;4.05;;;2.40;;
75356;SDS011;63946;51.986;5.930;2024-03-25T15:19:30;5.60;;;2.75;;
75356;SDS011;63946;51.986;5.930;2024-03-25T15:21:56;4.45;;;2.22;;
75356;SDS011;63946;51.986;5.930;2024-03-25T15:24:23;5.38;;;2.50;;
75356;SDS011;63946;51.986;5.930;2024-03-25T15:26:52;4.43;;;2.50;;
75356;SDS011;63946;51.986;5.930;2024-03-25T15:29:18;6.05;;;2.35;;
75356;SDS011;63946;51.986;5.930;2024-03-25T15:31:44;5.65;;;2.90;;
75356;SDS011;63946;51.986;5.930;2024-03-25T15:34:10;6.43;;;2.50;;
75356;SDS011;63946;51.986;5.930;2024-03-25T15:36:36;6.85;;;2.67;;
75356;SDS011;63946;51.986;5.930;2024-03-25T15:39:02;5.28;;;2.40;;
75356;SDS011;63946;51.986;5.930;2024-03-25T15:41:29;6.20;;;3.05;;
75356;SDS011;63946;51.986;5.930;2024-03-25T15:43:55;7.03;;;2.80;;
75356;SDS011;63946;51.986;5.930;2024-03-25T15:46:21;6.07;;;2.80;;
75356;SDS011;63946;51.986;5.930;2024-03-25T15:48:47;5.60;;;2.63;;
75356;SDS011;63946;51.986;5.930;2024-03-25T15:51:13;4.45;;;2.60;;
75356;SDS011;63946;51.986;5.930;2024-03-25T15:53:42;7.70;;;2.80;;
75356;SDS011;63946;51.986;5.930;2024-03-25T15:56:08;6.72;;;3.20;;
75356;SDS011;63946;51.986;5.930;2024-03-25T15:58:34;6.47;;;3.00;;
75356;SDS011;63946;51.986;5.930;2024-03-25T16:01:00;5.20;;;2.83;;
75356;SDS011;63946;51.986;5.930;2024-03-25T16:03:27;7.38;;;2.70;;
75356;SDS011;63946;51.986;5.930;2024-03-25T16:05:53;5.85;;;3.25;;
75356;SDS011;63946;51.986;5.930;2024-03-25T16:08:19;5.72;;;2.78;;
75356;SDS011;63946;51.986;5.930;2024-03-25T16:10:45;7.45;;;3.28;;
75356;SDS011;63946;51.986;5.930;2024-03-25T16:13:11;6.63;;;3.83;;
75356;SDS011;63946;51.986;5.930;2024-03-25T16:15:37;5.78;;;3.00;;
75356;SDS011;63946;51.986;5.930;2024-03-25T16:18:03;7.72;;;3.03;;
75356;SDS011;63946;51.986;5.930;2024-03-25T16:20:30;5.75;;;2.80;;
75356;SDS011;63946;51.986;5.930;2024-03-25T16:22:57;6.97;;;2.88;;
75356;SDS011;63946;51.986;5.930;2024-03-25T16:25:23;6.90;;;3.10;;
75356;SDS011;63946;51.986;5.930;2024-03-25T16:27:50;8.43;;;3.38;;